createdAt,value
2018-10-11T00:00:02.335Z,9.04
2018-10-11T00:02:31.157Z,9.01
2018-10-11T00:05:00.303Z,9.00
2018-10-11T00:07:28.888Z,8.92
2018-10-11T00:09:57.763Z,8.69
2018-10-11T00:12:26.582Z,8.67
2018-10-11T00:14:55.316Z,8.57
2018-10-11T00:17:24.087Z,8.58
2018-10-11T00:19:52.791Z,8.65
2018-10-11T00:22:21.563Z,8.64
2018-10-11T00:24:50.306Z,8.59
2018-10-11T00:27:19.252Z,8.63
2018-10-11T00:29:48.023Z,8.70
2018-10-11T00:32:16.783Z,8.67
2018-10-11T00:34:45.433Z,8.67
2018-10-11T00:37:14.891Z,8.53
2018-10-11T00:39:43.502Z,8.47
2018-10-11T00:42:12.943Z,8.39
2018-10-11T00:44:41.952Z,8.34
2018-10-11T00:47:10.699Z,8.35
2018-10-11T00:49:39.381Z,8.25
2018-10-11T00:52:08.802Z,8.20
2018-10-11T00:54:37.457Z,8.06
2018-10-11T00:57:06.697Z,8.05
2018-10-11T00:59:35.391Z,8.01
2018-10-11T01:02:04.079Z,8.02
2018-10-11T01:04:32.787Z,7.99
2018-10-11T01:07:01.719Z,7.91
2018-10-11T01:09:31.570Z,7.89
2018-10-11T01:12:00.735Z,7.83
2018-10-11T01:14:29.903Z,7.83
2018-10-11T01:16:58.901Z,7.85
2018-10-11T01:19:28.672Z,7.81
2018-10-11T01:21:57.397Z,7.75
2018-10-11T01:24:26.178Z,7.78
2018-10-11T01:26:55.847Z,7.74
2018-10-11T01:29:25.517Z,7.75
2018-10-11T01:31:54.316Z,7.61
2018-10-11T01:34:23.529Z,7.57
2018-10-11T01:36:53.054Z,7.52
2018-10-11T01:39:21.679Z,7.58
2018-10-11T01:41:50.337Z,7.56
2018-10-11T01:44:19.059Z,7.32
2018-10-11T01:46:47.769Z,7.30
2018-10-11T01:49:16.441Z,7.38
2018-10-11T01:51:45.150Z,7.40
2018-10-11T01:54:14.264Z,7.41
2018-10-11T01:56:43.274Z,7.44
2018-10-11T01:59:12.654Z,7.43
2018-10-11T02:01:42.218Z,7.38
2018-10-11T02:04:12.234Z,7.35
2018-10-11T02:06:40.952Z,7.34
2018-10-11T02:09:09.617Z,7.34
2018-10-11T02:11:39.028Z,7.27
2018-10-11T02:14:07.772Z,7.28
2018-10-11T02:16:36.407Z,7.19
2018-10-11T02:19:05.094Z,7.00
2018-10-11T02:21:33.937Z,6.98
2018-10-11T02:24:03.042Z,6.99
2018-10-11T02:26:31.799Z,7.02
2018-10-11T02:29:00.580Z,7.07
2018-10-11T02:31:30.024Z,7.11
2018-10-11T02:33:59.002Z,7.18
2018-10-11T02:36:28.434Z,7.13
2018-10-11T02:38:57.437Z,7.09
2018-10-11T02:41:26.052Z,7.03
2018-10-11T02:43:55.133Z,6.91
2018-10-11T02:46:23.887Z,6.82
2018-10-11T02:48:52.549Z,6.83
2018-10-11T02:51:22.050Z,6.83
2018-10-11T02:53:50.807Z,6.83
2018-10-11T02:56:20.614Z,6.81
2018-10-11T02:59:01.147Z,6.78
2018-10-11T03:01:30.342Z,6.79
2018-10-11T03:04:04.320Z,6.74
2018-10-11T03:06:35.323Z,6.70
2018-10-11T03:09:05.040Z,6.69
2018-10-11T03:11:33.879Z,6.65
2018-10-11T03:14:03.164Z,6.56
2018-10-11T03:16:32.020Z,6.61
2018-10-11T03:19:00.729Z,6.60
2018-10-11T03:21:29.520Z,6.54
2018-10-11T03:24:02.108Z,6.54
2018-10-11T03:26:31.244Z,6.52
2018-10-11T03:29:00.114Z,6.54
2018-10-11T03:31:29.244Z,6.46
2018-10-11T03:33:57.920Z,6.51
2018-10-11T03:36:26.735Z,6.44
2018-10-11T03:38:56.313Z,6.38
2018-10-11T03:41:25.579Z,6.31
2018-10-11T03:43:54.231Z,6.37
2018-10-11T03:46:23.004Z,6.34
2018-10-11T03:48:52.163Z,6.30
2018-10-11T03:51:20.688Z,6.25
2018-10-11T03:53:49.533Z,6.32
2018-10-11T03:56:18.981Z,6.21
2018-10-11T03:58:47.760Z,6.16
2018-10-11T04:01:17.700Z,6.18
2018-10-11T04:03:46.714Z,6.10
2018-10-11T04:06:15.724Z,6.09
2018-10-11T04:08:44.965Z,6.01
2018-10-11T04:11:13.815Z,6.07
2018-10-11T04:13:42.878Z,5.99
2018-10-11T04:16:11.906Z,5.95
2018-10-11T04:18:41.049Z,5.92
2018-10-11T04:21:10.263Z,5.91
2018-10-11T04:23:39.328Z,5.92
2018-10-11T04:26:08.067Z,5.90
2018-10-11T04:28:36.849Z,5.88
2018-10-11T04:31:05.982Z,5.82
2018-10-11T04:33:34.701Z,5.77
2018-10-11T04:36:03.496Z,5.70
2018-10-11T04:38:32.625Z,5.74
2018-10-11T04:41:02.493Z,5.79
2018-10-11T04:43:31.135Z,5.75
2018-10-11T04:46:00.355Z,5.78
2018-10-11T04:48:29.594Z,5.65
2018-10-11T04:50:58.722Z,5.56
2018-10-11T04:53:27.369Z,5.61
2018-10-11T04:55:56.011Z,5.65
2018-10-11T04:58:25.499Z,5.61
2018-10-11T05:00:54.440Z,5.48
2018-10-11T05:03:23.758Z,5.40
2018-10-11T05:05:52.374Z,5.37
2018-10-11T05:08:21.143Z,5.47
2018-10-11T05:10:50.630Z,5.48
2018-10-11T05:13:19.698Z,5.43
2018-10-11T05:15:49.119Z,5.49
2018-10-11T05:18:18.228Z,5.46
2018-10-11T05:20:47.128Z,5.42
2018-10-11T05:23:15.870Z,5.41
2018-10-11T05:25:45.654Z,5.35
2018-10-11T05:28:14.321Z,5.28
2018-10-11T05:30:45.870Z,5.24
2018-10-11T05:33:15.958Z,5.27
2018-10-11T05:35:45.064Z,5.24
2018-10-11T05:38:14.083Z,5.28
2018-10-11T05:40:42.884Z,5.33
2018-10-11T05:43:13.364Z,5.28
2018-10-11T05:45:43.660Z,5.24
2018-10-11T05:48:12.885Z,5.22
2018-10-11T05:50:41.820Z,5.20
2018-10-11T05:53:12.044Z,5.21
2018-10-11T05:55:41.715Z,5.27
2018-10-11T05:58:10.809Z,5.33
2018-10-11T06:00:39.993Z,5.39
2018-10-11T06:03:08.874Z,5.44
2018-10-11T06:05:37.649Z,5.52
2018-10-11T06:08:06.812Z,5.51
2018-10-11T06:10:37.259Z,5.42
2018-10-11T06:13:07.350Z,5.35
2018-10-11T06:15:37.260Z,5.39
2018-10-11T06:18:06.069Z,5.52
2018-10-11T06:20:34.786Z,5.54
2018-10-11T06:23:03.789Z,5.66
2018-10-11T06:25:32.388Z,5.77
2018-10-11T06:28:01.425Z,5.84
2018-10-11T06:30:31.059Z,5.87
2018-10-11T06:33:00.207Z,5.91
2018-10-11T06:35:29.360Z,6.03
2018-10-11T06:37:59.290Z,6.18
2018-10-11T06:40:28.324Z,6.27
2018-10-11T06:42:57.746Z,6.26
2018-10-11T06:45:26.955Z,6.24
2018-10-11T06:47:58.173Z,6.34
2018-10-11T06:50:26.979Z,6.49
2018-10-11T06:52:55.609Z,6.64
2018-10-11T06:55:24.919Z,6.77
2018-10-11T06:57:54.336Z,6.90
2018-10-11T07:00:23.210Z,6.98
2018-10-11T07:02:52.124Z,7.04
2018-10-11T07:05:20.991Z,7.15
2018-10-11T07:07:49.894Z,7.27
2018-10-11T07:10:18.827Z,7.38
2018-10-11T07:12:47.498Z,7.48
2018-10-11T07:15:16.605Z,7.60
2018-10-11T07:17:45.575Z,7.74
2018-10-11T07:20:14.444Z,7.88
2018-10-11T07:22:43.381Z,8.01
2018-10-11T07:25:12.558Z,8.14
2018-10-11T07:27:41.396Z,8.29
2018-10-11T07:30:10.279Z,8.42
2018-10-11T07:32:39.258Z,8.53
2018-10-11T07:35:08.031Z,8.67
2018-10-11T07:37:36.734Z,8.84
2018-10-11T07:40:05.935Z,9.01
2018-10-11T07:42:35.199Z,9.29
2018-10-11T07:45:04.473Z,9.62
2018-10-11T07:47:33.284Z,9.85
2018-10-11T07:50:02.819Z,10.06
2018-10-11T07:52:31.944Z,10.25
2018-10-11T07:55:01.324Z,10.50
2018-10-11T07:57:30.164Z,10.72
2018-10-11T07:59:59.686Z,11.20
2018-10-11T08:02:28.667Z,12.19
2018-10-11T08:04:57.405Z,13.53
2018-10-11T08:07:26.152Z,15.61
2018-10-11T08:09:54.936Z,17.17
2018-10-11T08:12:23.791Z,18.77
2018-10-11T08:14:52.772Z,20.59
2018-10-11T08:17:21.735Z,21.85
2018-10-11T08:19:50.894Z,22.80
2018-10-11T08:22:20.050Z,23.28
2018-10-11T08:24:48.774Z,24.26
2018-10-11T08:27:17.329Z,24.21
2018-10-11T08:29:46.164Z,25.28
2018-10-11T08:32:15.017Z,25.44
2018-10-11T08:34:43.999Z,26.27
2018-10-11T08:37:13.361Z,26.56
2018-10-11T08:39:41.996Z,27.23
2018-10-11T08:42:10.746Z,28.19
2018-10-11T08:44:39.507Z,28.91
2018-10-11T08:47:08.306Z,29.23
2018-10-11T08:49:37.279Z,28.65
2018-10-11T08:52:06.865Z,29.58
2018-10-11T08:54:41.043Z,29.45
2018-10-11T08:57:09.945Z,30.38
2018-10-11T08:59:39.142Z,30.10
2018-10-11T09:02:08.596Z,30.06
2018-10-11T09:04:37.607Z,30.18
2018-10-11T09:07:07.742Z,31.29
2018-10-11T09:09:36.980Z,32.90
2018-10-11T09:12:06.185Z,32.98
2018-10-11T09:14:35.185Z,33.19
2018-10-11T09:17:04.830Z,34.19
2018-10-11T09:19:33.630Z,33.69
2018-10-11T09:22:03.252Z,34.13
2018-10-11T09:24:32.340Z,33.12
2018-10-11T09:27:01.334Z,33.51
2018-10-11T09:29:29.956Z,33.40
2018-10-11T09:31:58.732Z,33.39
2018-10-11T09:34:27.535Z,34.49
2018-10-11T09:36:56.707Z,33.24
2018-10-11T09:39:25.299Z,33.15
2018-10-11T09:41:54.875Z,32.97
2018-10-11T09:44:25.125Z,32.58
2018-10-11T09:46:54.633Z,34.13
2018-10-11T09:49:23.552Z,35.73
2018-10-11T09:51:52.730Z,35.17
2018-10-11T09:54:21.433Z,35.85
2018-10-11T09:57:11.766Z,36.51
2018-10-11T09:59:41.087Z,36.92
2018-10-11T10:02:11.032Z,37.45
2018-10-11T10:04:42.600Z,38.01
2018-10-11T10:07:11.794Z,38.39
2018-10-11T10:09:41.275Z,38.30
2018-10-11T10:12:10.574Z,38.58
2018-10-11T10:14:40.085Z,38.98
2018-10-11T10:17:08.877Z,38.74
2018-10-11T10:19:38.072Z,39.40
2018-10-11T10:22:06.929Z,39.66
2018-10-11T10:24:35.711Z,38.68
2018-10-11T10:27:03.629Z,39.23
2018-10-11T10:29:32.853Z,39.21
2018-10-11T10:32:02.736Z,39.92
2018-10-11T10:34:32.170Z,40.54
2018-10-11T10:37:00.902Z,41.43
2018-10-11T10:39:29.725Z,41.92
2018-10-11T10:41:58.771Z,39.78
2018-10-11T10:44:27.654Z,39.03
2018-10-11T10:46:56.329Z,38.09
2018-10-11T10:49:26.572Z,38.21
2018-10-11T10:51:56.640Z,39.48
2018-10-11T10:54:28.407Z,39.99
2018-10-11T10:56:57.830Z,40.28
2018-10-11T10:59:27.400Z,41.11
2018-10-11T11:01:56.390Z,41.21
2018-10-11T11:04:25.369Z,40.83
2018-10-11T11:06:54.101Z,39.32
2018-10-11T11:09:23.140Z,39.87
2018-10-11T11:11:52.351Z,39.55
2018-10-11T11:14:21.601Z,41.03
2018-10-11T11:16:50.800Z,41.88
2018-10-11T11:19:18.902Z,39.59
2018-10-11T11:21:48.081Z,40.13
2018-10-11T11:24:16.275Z,40.30
2018-10-11T11:26:44.607Z,39.75
2018-10-11T11:29:12.896Z,38.98
2018-10-11T11:31:41.694Z,39.95
2018-10-11T11:34:11.601Z,41.30
2018-10-11T11:36:40.591Z,41.11
2018-10-11T11:39:10.383Z,42.16
2018-10-11T11:41:40.017Z,41.56
2018-10-11T11:44:09.234Z,42.61
2018-10-11T11:46:37.497Z,42.78
2018-10-11T11:49:05.712Z,43.00
2018-10-11T11:51:35.067Z,43.43
2018-10-11T11:54:05.093Z,41.61
2018-10-11T11:56:35.547Z,40.96
2018-10-11T11:59:04.363Z,40.65
2018-10-11T12:01:33.131Z,38.19
2018-10-11T12:04:02.013Z,35.96
2018-10-11T12:06:31.237Z,36.41
2018-10-11T12:09:00.173Z,37.98
2018-10-11T12:11:28.897Z,39.62
2018-10-11T12:13:57.907Z,39.21
2018-10-11T12:16:27.268Z,37.23
2018-10-11T12:18:56.523Z,38.11
2018-10-11T12:21:25.966Z,38.36
2018-10-11T12:23:55.416Z,37.54
2018-10-11T12:26:24.391Z,35.26
2018-10-11T12:28:53.465Z,33.72
2018-10-11T12:31:22.413Z,33.23
2018-10-11T12:33:51.707Z,33.21
2018-10-11T12:36:21.154Z,32.91
2018-10-11T12:38:50.481Z,33.41
2018-10-11T12:41:19.021Z,33.62
2018-10-11T12:43:48.081Z,33.03
2018-10-11T12:46:16.851Z,32.02
2018-10-11T12:48:46.447Z,31.17
2018-10-11T12:51:15.273Z,30.65
2018-10-11T12:53:47.483Z,29.88
2018-10-11T12:56:13.074Z,29.11
2018-10-11T12:58:42.088Z,28.74
2018-10-11T13:01:11.857Z,28.62
2018-10-11T13:03:40.437Z,28.37
2018-10-11T13:06:09.358Z,28.27
2018-10-11T13:08:38.026Z,28.02
2018-10-11T13:11:06.922Z,28.01
2018-10-11T13:13:35.567Z,28.10
2018-10-11T13:16:05.130Z,28.04
2018-10-11T13:18:34.432Z,28.67
2018-10-11T13:21:03.921Z,29.14
2018-10-11T13:23:32.746Z,28.85
2018-10-11T13:26:01.602Z,28.67
2018-10-11T13:28:30.941Z,27.91
2018-10-11T13:31:00.039Z,27.91
2018-10-11T13:33:29.157Z,27.75
2018-10-11T13:35:58.067Z,27.63
2018-10-11T13:38:27.771Z,27.48
2018-10-11T13:40:59.550Z,27.41
2018-10-11T13:43:25.191Z,27.32
2018-10-11T13:45:56.975Z,27.08
2018-10-11T13:48:23.047Z,27.12
2018-10-11T13:50:51.608Z,27.05
2018-10-11T13:53:23.686Z,26.97
2018-10-11T13:55:53.619Z,26.47
2018-10-11T13:58:19.762Z,26.01
2018-10-11T14:00:48.611Z,25.74
2018-10-11T14:03:17.532Z,25.62
2018-10-11T14:05:47.271Z,25.52
2018-10-11T14:08:16.343Z,25.45
2018-10-11T14:10:45.193Z,25.44
2018-10-11T14:13:15.772Z,25.30
2018-10-11T14:15:42.968Z,25.04
2018-10-11T14:18:12.729Z,24.83
2018-10-11T14:20:41.582Z,24.80
2018-10-11T14:23:10.377Z,24.68
2018-10-11T14:25:39.072Z,24.81
2018-10-11T14:28:07.977Z,24.83
2018-10-11T14:30:36.728Z,24.78
2018-10-11T14:33:05.578Z,24.18
2018-10-11T14:35:34.601Z,23.77
2018-10-11T14:38:03.337Z,23.79
2018-10-11T14:40:32.461Z,24.15
2018-10-11T14:43:01.470Z,24.40
2018-10-11T14:45:31.110Z,24.53
2018-10-11T14:48:00.217Z,24.77
2018-10-11T14:50:30.036Z,24.83
2018-10-11T14:52:58.626Z,24.71
2018-10-11T14:55:27.952Z,24.64
2018-10-11T14:57:56.787Z,24.58
2018-10-11T15:00:26.252Z,24.43
2018-10-11T15:02:55.927Z,24.35
2018-10-11T15:05:24.611Z,24.29
2018-10-11T15:07:53.491Z,23.91
2018-10-11T15:10:22.299Z,23.60
2018-10-11T15:12:51.071Z,23.50
2018-10-11T15:15:20.636Z,23.48
2018-10-11T15:17:49.634Z,23.30
2018-10-11T15:20:18.536Z,23.08
2018-10-11T15:22:48.301Z,22.80
2018-10-11T15:25:17.452Z,22.56
2018-10-11T15:27:46.562Z,22.44
2018-10-11T15:30:15.802Z,22.19
2018-10-11T15:32:44.897Z,21.90
2018-10-11T15:35:13.862Z,21.80
2018-10-11T15:37:42.652Z,21.64
2018-10-11T15:40:11.668Z,21.49
2018-10-11T15:42:40.272Z,21.25
2018-10-11T15:45:10.431Z,20.55
2018-10-11T15:47:39.457Z,20.34
2018-10-11T15:50:08.423Z,20.32
2018-10-11T15:52:37.506Z,20.38
2018-10-11T15:55:06.184Z,20.34
2018-10-11T15:57:35.211Z,20.23
2018-10-11T16:00:04.457Z,20.05
2018-10-11T16:02:33.433Z,20.00
2018-10-11T16:05:03.247Z,19.88
2018-10-11T16:07:32.121Z,19.54
2018-10-11T16:10:00.862Z,19.40
2018-10-11T16:12:29.728Z,19.12
2018-10-11T16:14:58.529Z,19.11
2018-10-11T16:17:28.187Z,19.18
2018-10-11T16:19:57.206Z,19.09
2018-10-11T16:22:25.995Z,18.89
2018-10-11T16:24:54.751Z,18.73
2018-10-11T16:27:23.527Z,18.66
2018-10-11T16:29:52.348Z,18.75
2018-10-11T16:32:21.517Z,18.52
2018-10-11T16:34:51.832Z,18.23
2018-10-11T16:37:21.007Z,18.16
2018-10-11T16:39:50.560Z,18.30
2018-10-11T16:42:19.448Z,18.19
2018-10-11T16:44:48.413Z,18.27
2018-10-11T16:47:18.703Z,18.30
2018-10-11T16:49:48.212Z,18.27
2018-10-11T16:52:17.203Z,18.10
2018-10-11T16:54:46.492Z,18.04
2018-10-11T16:57:16.583Z,18.07
2018-10-11T16:59:47.080Z,18.12
2018-10-11T17:02:15.930Z,18.13
2018-10-11T17:04:44.569Z,18.05
2018-10-11T17:07:13.562Z,18.01
2018-10-11T17:09:42.750Z,17.97
2018-10-11T17:12:11.662Z,17.98
2018-10-11T17:14:41.135Z,17.94
2018-10-11T17:17:10.790Z,17.91
2018-10-11T17:19:39.707Z,17.91
2018-10-11T17:22:08.893Z,17.79
2018-10-11T17:24:37.684Z,17.64
2018-10-11T17:27:07.451Z,17.59
2018-10-11T17:29:37.175Z,17.60
2018-10-11T17:32:06.232Z,17.51
2018-10-11T17:34:36.027Z,17.40
2018-10-11T17:37:05.353Z,17.41
2018-10-11T17:39:34.464Z,17.41
2018-10-11T17:42:03.618Z,17.33
2018-10-11T17:44:33.898Z,17.30
2018-10-11T17:47:02.752Z,17.32
2018-10-11T17:49:31.567Z,17.29
2018-10-11T17:52:00.522Z,17.25
2018-10-11T17:54:29.582Z,17.09
2018-10-11T17:56:59.823Z,16.97
2018-10-11T17:59:28.774Z,16.96
2018-10-11T18:01:58.371Z,16.90
2018-10-11T18:04:27.250Z,16.97
2018-10-11T18:06:56.019Z,16.84
2018-10-11T18:09:25.229Z,16.84
2018-10-11T18:11:54.118Z,16.77
2018-10-11T18:14:23.084Z,16.53
2018-10-11T18:16:51.899Z,16.39
2018-10-11T18:19:21.093Z,16.45
2018-10-11T18:21:50.222Z,16.53
2018-10-11T18:24:20.002Z,16.51
2018-10-11T18:26:49.489Z,16.50
2018-10-11T18:29:18.957Z,16.52
2018-10-11T18:31:48.028Z,16.54
2018-10-11T18:34:17.279Z,16.61
2018-10-11T18:36:46.329Z,16.45
2018-10-11T18:39:16.001Z,16.34
2018-10-11T18:41:44.874Z,16.36
2018-10-11T18:44:13.995Z,16.31
2018-10-11T18:46:43.279Z,16.27
2018-10-11T18:49:12.633Z,16.20
2018-10-11T18:51:41.840Z,16.28
2018-10-11T18:54:11.232Z,16.24
2018-10-11T18:56:40.445Z,16.26
2018-10-11T18:59:09.538Z,16.27
2018-10-11T19:01:38.718Z,16.21
2018-10-11T19:04:08.048Z,16.12
2018-10-11T19:06:37.311Z,16.00
2018-10-11T19:09:07.858Z,15.96
2018-10-11T19:11:36.739Z,16.01
2018-10-11T19:14:05.929Z,16.02
2018-10-11T19:16:35.029Z,16.00
2018-10-11T19:19:04.295Z,15.95
2018-10-11T19:21:34.381Z,15.84
2018-10-11T19:24:11.982Z,15.75
2018-10-11T19:26:41.594Z,15.64
2018-10-11T19:29:10.778Z,15.54
2018-10-11T19:31:41.114Z,15.50
2018-10-11T19:34:10.190Z,15.42
2018-10-11T19:36:39.512Z,15.34
2018-10-11T19:39:11.842Z,15.33
2018-10-11T19:41:40.981Z,15.18
2018-10-11T19:44:10.935Z,15.10
2018-10-11T19:46:40.450Z,15.05
2018-10-11T19:49:10.526Z,14.99
2018-10-11T19:51:39.902Z,14.88
2018-10-11T19:54:08.903Z,14.72
2018-10-11T19:56:38.164Z,14.70
2018-10-11T19:59:07.254Z,14.69
2018-10-11T20:01:36.130Z,14.64
2018-10-11T20:04:04.974Z,14.46
2018-10-11T20:06:34.051Z,14.38
2018-10-11T20:09:03.808Z,14.12
2018-10-11T20:11:33.479Z,13.94
2018-10-11T20:14:02.650Z,13.95
2018-10-11T20:16:32.822Z,13.99
2018-10-11T20:19:01.689Z,13.90
2018-10-11T20:21:31.427Z,13.88
2018-10-11T20:24:00.534Z,13.67
2018-10-11T20:26:29.473Z,13.64
2018-10-11T20:28:58.959Z,13.56
2018-10-11T20:31:28.574Z,13.44
2018-10-11T20:33:57.398Z,13.35
2018-10-11T20:36:27.764Z,13.26
2018-10-11T20:39:01.308Z,13.31
2018-10-11T20:41:31.099Z,13.17
2018-10-11T20:44:00.303Z,13.07
2018-10-11T20:46:29.553Z,13.06
2018-10-11T20:48:58.510Z,13.10
2018-10-11T20:51:28.051Z,13.06
2018-10-11T20:53:56.903Z,12.97
2018-10-11T20:56:25.758Z,12.93
2018-10-11T20:58:54.732Z,12.85
2018-10-11T21:01:23.969Z,12.84
2018-10-11T21:03:54.348Z,12.93
2018-10-11T21:06:23.285Z,12.99
2018-10-11T21:08:53.535Z,13.04
2018-10-11T21:11:22.169Z,13.13
2018-10-11T21:13:51.809Z,13.13
2018-10-11T21:16:20.924Z,13.17
2018-10-11T21:18:49.842Z,13.08
2018-10-11T21:21:18.610Z,13.01
2018-10-11T21:23:49.063Z,13.02
2018-10-11T21:26:18.046Z,13.01
2018-10-11T21:28:47.124Z,13.03
2018-10-11T21:31:16.688Z,13.04
2018-10-11T21:33:45.535Z,13.10
2018-10-11T21:36:15.989Z,13.05
2018-10-11T21:38:44.931Z,13.01
2018-10-11T21:41:13.869Z,13.06
2018-10-11T21:43:42.539Z,13.03
2018-10-11T21:46:11.810Z,13.04
2018-10-11T21:48:41.964Z,13.02
2018-10-11T21:51:11.055Z,12.92
2018-10-11T21:53:40.444Z,12.84
2018-10-11T21:56:09.368Z,12.77
2018-10-11T21:58:39.108Z,12.75
2018-10-11T22:01:14.045Z,12.70
2018-10-11T22:03:43.049Z,12.66
2018-10-11T22:06:12.417Z,12.70
2018-10-11T22:08:41.441Z,12.67
2018-10-11T22:11:11.354Z,12.40
2018-10-11T22:13:41.909Z,12.49
2018-10-11T22:16:11.496Z,12.59
2018-10-11T22:18:42.349Z,12.68
2018-10-11T22:21:12.158Z,12.72
2018-10-11T22:23:43.703Z,12.76
2018-10-11T22:26:13.125Z,12.76
2018-10-11T22:28:43.283Z,12.79
2018-10-11T22:31:13.425Z,12.82
2018-10-11T22:33:43.608Z,12.87
2018-10-11T22:36:13.268Z,12.92
2018-10-11T22:38:42.971Z,12.89
2018-10-11T22:41:12.491Z,12.85
2018-10-11T22:43:42.091Z,12.87
2018-10-11T22:46:12.378Z,12.83
2018-10-11T22:48:41.762Z,12.84
2018-10-11T22:51:11.581Z,12.87
2018-10-11T22:53:41.334Z,12.89
2018-10-11T22:56:10.024Z,12.88
2018-10-11T22:58:38.914Z,12.91
2018-10-11T23:01:08.189Z,12.96
2018-10-11T23:03:37.027Z,12.96
2018-10-11T23:06:05.943Z,12.91
2018-10-11T23:08:34.902Z,12.90
2018-10-11T23:11:03.773Z,12.83
2018-10-11T23:13:32.508Z,12.71
2018-10-11T23:16:01.373Z,12.54
2018-10-11T23:18:30.112Z,12.45
2018-10-11T23:20:58.735Z,12.37
2018-10-11T23:23:27.923Z,12.32
2018-10-11T23:25:57.165Z,12.26
2018-10-11T23:28:26.033Z,12.20
2018-10-11T23:30:55.704Z,12.09
2018-10-11T23:33:24.832Z,11.97
2018-10-11T23:35:53.658Z,11.89
2018-10-11T23:38:23.413Z,11.83
2018-10-11T23:40:52.150Z,11.73
2018-10-11T23:43:20.845Z,11.66
2018-10-11T23:45:49.503Z,11.61
2018-10-11T23:48:18.209Z,11.47
2018-10-11T23:50:47.054Z,11.44
2018-10-11T23:53:17.294Z,11.46
2018-10-11T23:55:46.003Z,11.40
2018-10-11T23:58:14.705Z,11.35
